Weather observations for the past three days for
San Jose Del Cabo
Imperial (Metric)
Date Time (mst) Wind (mph) Vis. (mi.) Weather Sky Cond. Temperature (ºF) Relative Humidity Wind Chill (°F) Heat Index (°F) Pressure Precipitation (in)
Air Dwpt 6 hour altimeter (in) sea level (mb) 1 hr 3 hr 6 hr
Max. Min.
05 20:41 SE 3 10.00 Partly Cloudy SCT250 75.2 64.4 69% 77 29.94 0.0
05 19:43 S 3 10.00 Partly Cloudy SCT250 75.2 64.4 69% 77 29.92 1011.3
05 18:40 SE 8 10.00 Partly Cloudy SCT250 77 64.4 65% 79 29.91 0.0
05 17:51 S 9 10.00 Mostly Cloudy BKN250 78.8 66.2 65% 81 29.89 0.0
05 16:40 SE 13 10.00 Mostly Cloudy BKN250 82.4 66.2 58% 85 29.88 1009.8
05 15:46 S 10 10.00 Mostly Cloudy BKN250 84.2 64.4 51% 86 29.88 0.0
05 14:57 SE 14 10.00 Partly Cloudy SCT250 84.2 64.4 51% 86 29.89 0.0
05 13:54 SE 16 10.00 Partly Cloudy SCT250 82.4 60.8 48% 83 29.92 1011.0
05 12:48 SE 14 10.00 Partly Cloudy SCT250 86 57.2 38% 85 29.93 0.0
05 11:44 SE 14 10.00 Mostly Cloudy BKN250 82.4 60.8 48% 83 29.95 0.0
05 10:47 SE 14 10.00 Mostly Cloudy BKN250 82.4 64.4 55% 84 29.96 1012.5
05 09:51 SE 14 10.00 Mostly Cloudy BKN250 82.4 60.8 48% 83 29.96 0.0
05 08:51 Calm 10.00 Mostly Cloudy BKN250 78.8 60.8 54% 80 29.97 0.0
05 07:54 Calm 10.00 A Few Clouds FEW250 75.2 59 57% 78 29.96 1012.6
05 06:44 NW 6 10.00 Clear SKC 69.8 55.4 60% 29.96 0.0
05 05:45 NW 7 10.00 Clear SKC 64.4 57.2 78% 29.94 0.0
05 04:42 N 5 10.00 Clear SKC 66.2 59 78% 29.93 0.0
05 03:42 W 5 10.00 Clear SKC 66.2 55.4 68% 29.92 0.0
05 02:42 W 6 10.00 Clear SKC 66.2 59 78% 29.91 0.0
05 01:41 NW 5 10.00 Clear SKC 66.2 59 78% 29.93 0.0
05 00:41 Calm 10.00 Clear SKC 68 59 73% 29.93 0.0
04 23:40 Calm 10.00 Clear SKC 68 60.8 78% 29.93 0.0
04 22:40 Calm 10.00 Clear SKC 69.8 62.6 78% 29.93 0.0
04 21:41 NW 3 10.00 Mostly Cloudy BKN250 73.4 64.4 74% 29.93 0.0
04 20:40 SW 2 10.00 Mostly Cloudy BKN250 73.4 62.6 69% 29.93 0.0
04 19:42 S 5 10.00 Mostly Cloudy BKN250 73.4 64.4 74% 29.92 1011.0
04 18:41 SE 8 10.00 Mostly Cloudy BKN250 75.2 62.6 65% 77 29.9 0.0
04 17:41 SE 12 10.00 Partly Cloudy SCT250 77 62.6 61% 79 29.89 0.0
04 16:47 SE 14 10.00 Partly Cloudy SCT250 82.4 60.8 48% 83 29.89 1010.2
04 15:45 SE 15 10.00 Partly Cloudy SCT250 84.2 59 43% 84 29.9 0.0
04 14:41 SE 14 10.00 Partly Cloudy SCT250 84.2 60.8 45% 84 29.92 0.0
04 13:43 SE 18 10.00 Partly Cloudy SCT250 82.4 60.8 48% 83 29.95 1011.9
04 12:52 SE 12 G 23 10.00 Mostly Cloudy BKN250 84.2 59 43% 84 29.95 0.0
04 11:46 S 12 10.00 Mostly Cloudy BKN250 84.2 59 43% 84 29.95 0.0
04 10:41 SE 14 10.00 Mostly Cloudy BKN250 84.2 60.8 45% 84 29.97 1012.6
04 09:52 N 5 10.00 Mostly Cloudy BKN250 87.8 41 19% 84 29.97 0.0
04 08:45 N 5 10.00 Partly Cloudy SCT250 80.6 51.8 37% 80 29.97 0.0
04 07:53 E 6 10.00 Mostly Cloudy BKN250 77 50 39% 78 29.97 1013.0
04 06:55 Calm 10.00 Partly Cloudy SCT250 69.8 48.2 46% 29.97 0.0
04 05:52 W 7 10.00 Partly Cloudy SCT250 66.2 44.6 46% 29.93 0.0
04 05:30 W 2 10.00 Partly Cloudy SCT250 64.4 44.6 49% 29.93 0.0
03 21:41 NW 7 10.00 Partly Cloudy SCT250 73.4 37.4 27% 29.96 0.0
03 20:48 NW 5 10.00 A Few Clouds FEW250 75.2 37.4 25% 77 29.95 0.0
03 19:41 Calm 10.00 Mostly Cloudy BKN250 78.8 41 26% 78 29.93 1011.6
03 18:42 SE 10 10.00 Mostly Cloudy BKN250 82.4 33.8 17% 80 29.91 0.0
03 17:43 E 14 10.00 Mostly Cloudy BKN250 82.4 37.4 20% 80 29.91 0.0
03 16:46 E 15 10.00 Mostly Cloudy BKN250 84.2 41 22% 82 29.9 1010.4
03 15:53 SE 16 10.00 Mostly Cloudy BKN250 86 42.8 22% 83 29.9 0.0
03 14:47 SE 14 10.00 Mostly Cloudy BKN250 84.2 44.6 25% 82 29.91 0.0
03 13:45 SE 18 10.00 Mostly Cloudy BKN250 86 44.6 24% 83 29.93 1011.4
03 12:48 SE 16 10.00 Partly Cloudy SCT250 89.6 41 18% 86 29.94 0.0
03 11:43 SE 13 10.00 Partly Cloudy SCT250 87.8 50 27% 85 29.96 0.0
03 10:48 SE 14 10.00 Partly Cloudy SCT250 86 57.2 38% 85 29.96 1012.5
03 09:42 SE 3 10.00 Partly Cloudy SCT250 86 53.6 33% 84 29.97 0.0
03 08:41 NE 2 10.00 A Few Clouds FEW250 84.2 48.2 29% 82 29.97 0.0
03 07:50 NW 5 10.00 A Few Clouds FEW250 78.8 48.2 34% 79 29.96 1012.5
03 06:40 N 2 10.00 Partly Cloudy SCT250 71.6 46.4 41% 29.94 0.0
03 05:45 NW 3 10.00 A Few Clouds FEW250 68 46.4 46% 29.91 0.0
03 04:43 NW 5 10.00 A Few Clouds FEW250 68 46.4 46% 29.89 1010.2
03 03:42 NW 3 10.00 Clear SKC 66.2 46.4 49% 29.9 0.0
03 02:42 Calm 10.00 Clear SKC 66.2 46.4 49% 29.9 0.0
03 01:41 W 3 10.00 Clear SKC 68 42.8 40% 29.91 0.0
03 00:42 W 3 10.00 Clear SKC 68 42.8 40% 29.93 0.0
02 23:43 W 3 10.00 Clear SKC 68 42.8 40% 29.94 0.0
02 23:00 W 3 10.00 Clear SKC 71.6 44.6 38% 29.94 0.0
Date Time (mst) Wind (mph) Vis. (mi.) Weather Sky Cond. Air Dwpt Max. Min. Relative Humidity Wind Chill (°F) Heat Index (°F) altimeter (in) sea level (mb) 1 hr 3 hr 6 hr
6 hour
Temperature (ºF) Pressure Precipitation (in)